Time;durP1;ratioP1;P1;durP2;ratioP2;P2;SDS_P1;SDS_P2;PMS_P1;PMS_P2;Temp;Humidity;BMP_temperature;BMP_pressure;BME280_temperature;BME280_humidity;BME280_pressure;Samples;Min_cycle;Max_cycle;Signal;HPM_P1;HPM_P2
2021/07/28 00:00:30;;;;;;;12.93;8.30;;;18.80;99.90;;;;;;5017709;28;20194;-74
2021/07/28 00:02:55;;;;;;;9.23;8.00;;;18.90;99.90;;;;;;5021954;28;20184;-74
2021/07/28 00:05:21;;;;;;;8.63;7.73;;;18.90;99.90;;;;;;5015530;28;20229;-74
2021/07/28 00:07:47;;;;;;;10.40;9.40;;;18.90;99.90;;;;;;5015129;28;20186;-74
2021/07/28 00:10:12;;;;;;;11.37;10.47;;;18.90;99.90;;;;;;5032632;28;20201;-74
2021/07/28 00:12:38;;;;;;;10.83;9.73;;;18.70;99.90;;;;;;5032759;28;20198;-74
2021/07/28 00:15:05;;;;;;;11.53;10.43;;;18.70;99.90;;;;;;5032614;28;20209;-73
2021/07/28 00:17:31;;;;;;;11.13;10.03;;;18.80;99.90;;;;;;5032696;28;20170;-74
2021/07/28 00:25:07;;;;;;;9.70;8.83;;;18.70;99.90;;;;;;5032891;28;20352;-74
2021/07/28 00:27:36;;;;;;;13.53;10.10;;;18.70;99.90;;;;;;5031549;28;20601;-74
2021/07/28 00:30:07;;;;;;;14.37;12.90;;;18.80;99.90;;;;;;5032552;28;20628;-74
2021/07/28 00:32:33;;;;;;;11.07;10.00;;;18.80;99.90;;;;;;5017288;28;20181;-73
2021/07/28 00:34:59;;;;;;;11.00;10.00;;;18.90;99.90;;;;;;5014307;28;20202;-73
2021/07/28 00:37:24;;;;;;;10.57;9.43;;;18.90;99.90;;;;;;5031909;28;20328;-72
2021/07/28 00:39:50;;;;;;;10.67;9.53;;;18.90;99.90;;;;;;5023865;28;20186;-74
2021/07/28 00:42:16;;;;;;;10.77;9.77;;;18.90;99.90;;;;;;5031398;28;20178;-74
2021/07/28 00:44:41;;;;;;;10.10;9.20;;;18.80;99.90;;;;;;5012439;28;20198;-74
2021/07/28 00:47:09;;;;;;;8.57;7.80;;;18.80;99.90;;;;;;5029894;28;20601;-74
2021/07/28 00:49:35;;;;;;;11.10;9.53;;;18.80;99.90;;;;;;5030970;28;20190;-74
2021/07/28 00:52:02;;;;;;;11.50;10.50;;;18.80;99.90;;;;;;5031233;28;20185;-73
2021/07/28 00:54:29;;;;;;;10.73;9.83;;;18.80;99.90;;;;;;5012464;28;20228;-74
2021/07/28 00:56:55;;;;;;;12.10;11.00;;;18.90;99.90;;;;;;5011887;28;20746;-72
2021/07/28 00:59:21;;;;;;;11.87;10.77;;;18.90;99.90;;;;;;5029587;28;20547;-73
2021/07/28 01:01:48;;;;;;;11.53;10.53;;;18.90;99.90;;;;;;5029607;28;20253;-73
2021/07/28 01:04:13;;;;;;;12.13;11.13;;;18.70;99.90;;;;;;5014306;28;20197;-72
2021/07/28 01:06:39;;;;;;;12.13;11.13;;;18.50;99.90;;;;;;5032107;28;20205;-74
2021/07/28 01:09:05;;;;;;;13.20;11.90;;;18.50;99.90;;;;;;5035419;28;20214;-72
2021/07/28 01:11:30;;;;;;;13.03;11.73;;;18.40;99.90;;;;;;5018156;28;20174;-73
2021/07/28 01:13:56;;;;;;;11.97;10.97;;;18.40;99.90;;;;;;5035758;28;20171;-73
2021/07/28 01:16:26;;;;;;;12.27;10.90;;;18.50;99.90;;;;;;5018104;28;20202;-74
2021/07/28 01:18:52;;;;;;;12.13;11.00;;;18.60;99.90;;;;;;5036017;28;20268;-72
2021/07/28 01:21:20;;;;;;;15.87;10.47;;;18.60;99.90;;;;;;5018081;28;20262;-74
2021/07/28 01:23:47;;;;;;;11.90;10.73;;;18.70;99.90;;;;;;5035675;28;20183;-73
2021/07/28 01:26:14;;;;;;;11.23;10.23;;;18.70;99.90;;;;;;5030013;28;20260;-73
2021/07/28 01:28:40;;;;;;;11.23;10.20;;;18.50;99.90;;;;;;5035588;28;20214;-74
2021/07/28 01:31:11;;;;;;;10.40;9.50;;;18.40;99.90;;;;;;5035710;28;20352;-74
2021/07/28 01:33:38;;;;;;;10.17;9.27;;;18.40;99.90;;;;;;5034711;28;20218;-73
2021/07/28 01:36:05;;;;;;;11.10;10.10;;;18.30;99.90;;;;;;5035383;28;20187;-73
2021/07/28 01:38:32;;;;;;;10.60;9.53;;;18.20;99.90;;;;;;5035303;28;20256;-74
2021/07/28 01:41:00;;;;;;;10.70;9.73;;;18.20;99.90;;;;;;5035179;28;20175;-72
2021/07/28 01:43:27;;;;;;;9.97;9.07;;;18.20;99.90;;;;;;5034493;28;20224;-74
2021/07/28 01:45:54;;;;;;;11.10;9.87;;;18.20;99.90;;;;;;5033910;28;20198;-73
2021/07/28 01:48:21;;;;;;;10.03;9.13;;;18.20;99.90;;;;;;5035264;28;20210;-74
2021/07/28 01:50:47;;;;;;;11.47;10.17;;;18.30;99.90;;;;;;5014201;28;20187;-73
2021/07/28 01:53:14;;;;;;;10.63;9.40;;;18.30;99.90;;;;;;5021571;28;20206;-74
2021/07/28 01:55:40;;;;;;;10.23;9.40;;;18.30;99.90;;;;;;5034896;28;20269;-74
2021/07/28 01:58:06;;;;;;;9.60;8.80;;;18.40;99.90;;;;;;5050459;28;20647;-73
2021/07/28 02:00:31;;;;;;;10.00;9.03;;;18.40;99.90;;;;;;5035147;28;20177;-74
2021/07/28 02:03:02;;;;;;;12.27;9.43;;;18.50;99.90;;;;;;5035031;28;20262;-74
2021/07/28 02:05:39;;;;;;;10.17;9.27;;;18.60;99.90;;;;;;5035323;28;20281;-73
2021/07/28 02:08:08;;;;;;;10.57;9.47;;;18.60;99.90;;;;;;5037511;28;20221;-74
2021/07/28 02:10:36;;;;;;;11.13;8.77;;;18.60;99.90;;;;;;5034949;28;20184;-74
2021/07/28 02:13:02;;;;;;;10.07;9.10;;;18.60;99.90;;;;;;5034933;28;20654;-74
2021/07/28 02:15:29;;;;;;;10.17;8.90;;;18.60;99.90;;;;;;5050615;28;20532;-74
2021/07/28 02:17:55;;;;;;;9.13;8.37;;;18.60;99.90;;;;;;5033371;28;20174;-74
2021/07/28 02:20:21;;;;;;;10.20;9.40;;;18.60;99.90;;;;;;5034552;28;20668;-73
2021/07/28 02:22:48;;;;;;;11.17;9.80;;;18.70;99.90;;;;;;5050134;28;20178;-73
2021/07/28 02:25:15;;;;;;;10.33;9.43;;;18.60;99.90;;;;;;5032822;28;20249;-73
2021/07/28 02:27:41;;;;;;;10.03;9.20;;;18.50;99.90;;;;;;5032074;28;20191;-73
2021/07/28 02:30:08;;;;;;;9.90;9.10;;;18.50;99.90;;;;;;5038637;28;20193;-74
2021/07/28 02:32:34;;;;;;;9.27;8.17;;;18.50;99.90;;;;;;5035551;28;20182;-74
2021/07/28 02:35:00;;;;;;;9.07;8.23;;;18.50;99.90;;;;;;5031091;28;20217;-73
2021/07/28 02:37:26;;;;;;;9.30;8.60;;;18.50;99.90;;;;;;5032402;28;20548;-73
2021/07/28 02:39:52;;;;;;;9.70;8.90;;;18.50;99.90;;;;;;5033126;28;20193;-73
2021/07/28 02:42:18;;;;;;;8.97;8.17;;;18.50;99.90;;;;;;5036956;28;20205;-75
2021/07/28 02:44:44;;;;;;;9.23;8.43;;;18.40;99.90;;;;;;5033389;28;20301;-74
2021/07/28 02:47:10;;;;;;;9.53;8.70;;;18.40;99.90;;;;;;5033037;28;20280;-73
2021/07/28 02:49:36;;;;;;;10.07;8.40;;;18.40;99.90;;;;;;5034014;28;20203;-74
2021/07/28 02:52:03;;;;;;;10.03;9.23;;;18.20;99.90;;;;;;5034164;28;20268;-74
2021/07/28 02:54:28;;;;;;;9.27;8.47;;;18.20;99.90;;;;;;5034290;28;20178;-73
2021/07/28 02:56:54;;;;;;;8.93;8.13;;;18.20;99.90;;;;;;5034074;28;20186;-73
2021/07/28 02:59:20;;;;;;;10.87;7.93;;;18.20;99.90;;;;;;5033181;28;20613;-73
2021/07/28 03:01:45;;;;;;;8.60;7.80;;;18.20;99.90;;;;;;5034058;28;20266;-74
2021/07/28 03:04:11;;;;;;;8.60;7.70;;;18.20;99.90;;;;;;5033838;28;20197;-73
2021/07/28 03:06:37;;;;;;;10.70;7.63;;;18.20;99.90;;;;;;5049078;28;20204;-72
2021/07/28 03:09:02;;;;;;;7.77;7.10;;;18.20;99.90;;;;;;5033816;28;20701;-74
2021/07/28 03:11:28;;;;;;;10.70;8.03;;;18.10;99.90;;;;;;5049529;28;20645;-72
2021/07/28 03:13:53;;;;;;;8.40;7.60;;;18.00;99.90;;;;;;5033704;28;20193;-72
2021/07/28 03:16:19;;;;;;;8.33;7.63;;;17.90;99.90;;;;;;5032755;28;20202;-73
2021/07/28 03:18:45;;;;;;;8.60;7.90;;;18.00;99.90;;;;;;5033454;28;20264;-74
2021/07/28 03:21:11;;;;;;;8.00;7.37;;;18.10;99.90;;;;;;5048884;28;20530;-72
2021/07/28 03:23:37;;;;;;;8.77;7.67;;;18.20;99.90;;;;;;5032188;28;20185;-73
2021/07/28 03:26:02;;;;;;;8.03;7.43;;;18.20;99.90;;;;;;5033555;28;20224;-73
2021/07/28 03:28:28;;;;;;;9.80;7.73;;;18.20;99.90;;;;;;5033476;28;20216;-73
2021/07/28 03:30:54;;;;;;;7.77;7.17;;;18.30;99.90;;;;;;5033006;28;20220;-73
2021/07/28 03:33:20;;;;;;;7.57;6.97;;;18.20;99.90;;;;;;5033415;28;20174;-73
2021/07/28 03:35:46;;;;;;;7.53;6.87;;;18.20;99.90;;;;;;5033263;28;20194;-74
2021/07/28 03:38:13;;;;;;;8.17;7.37;;;18.20;99.90;;;;;;5033460;28;20180;-74
2021/07/28 03:40:39;;;;;;;7.30;6.77;;;18.20;99.90;;;;;;5033223;28;20173;-74
2021/07/28 03:43:05;;;;;;;8.57;6.63;;;18.10;99.90;;;;;;5033448;28;20177;-74
2021/07/28 03:45:31;;;;;;;8.00;7.30;;;18.10;99.90;;;;;;5032436;28;20198;-73
2021/07/28 03:47:56;;;;;;;7.87;7.23;;;18.10;99.90;;;;;;5033152;28;20174;-74
2021/07/28 03:50:22;;;;;;;7.27;6.67;;;18.10;99.90;;;;;;5033104;28;20194;-74
2021/07/28 03:52:48;;;;;;;6.70;6.20;;;18.10;99.90;;;;;;5033123;28;20612;-74
2021/07/28 03:55:14;;;;;;;7.97;7.17;;;18.00;99.90;;;;;;5015736;28;20197;-73
2021/07/28 03:57:40;;;;;;;11.03;7.10;;;18.00;99.90;;;;;;5015349;28;20664;-74
2021/07/28 04:00:06;;;;;;;7.53;6.83;;;18.10;99.90;;;;;;5033291;28;20213;-72
2021/07/28 04:02:32;;;;;;;8.03;7.33;;;18.00;99.90;;;;;;5012471;28;20591;-72
2021/07/28 04:04:58;;;;;;;7.70;7.00;;;18.00;99.90;;;;;;5014472;28;20198;-73
2021/07/28 04:07:23;;;;;;;7.30;6.60;;;18.00;99.90;;;;;;5033043;28;20189;-73
2021/07/28 04:09:49;;;;;;;7.80;7.17;;;18.00;99.90;;;;;;5031899;28;20209;-74
2021/07/28 04:12:14;;;;;;;8.57;7.87;;;18.00;99.90;;;;;;5034836;28;20269;-73
2021/07/28 04:14:40;;;;;;;8.17;7.37;;;18.00;99.90;;;;;;5032437;28;20217;-73
2021/07/28 04:17:06;;;;;;;7.73;7.03;;;18.00;99.90;;;;;;5032144;28;20239;-73
2021/07/28 04:19:32;;;;;;;7.77;7.13;;;18.00;99.90;;;;;;5032772;28;20250;-72
2021/07/28 04:21:57;;;;;;;7.57;6.83;;;18.00;99.90;;;;;;5013379;28;20180;-73
2021/07/28 04:24:23;;;;;;;7.50;6.80;;;17.90;99.90;;;;;;5031327;28;20261;-73
2021/07/28 04:26:49;;;;;;;7.67;6.63;;;17.90;99.90;;;;;;5021980;28;20194;-73
2021/07/28 04:29:14;;;;;;;7.63;6.80;;;17.80;99.90;;;;;;5014188;28;20727;-73
2021/07/28 04:31:40;;;;;;;7.70;7.03;;;17.70;99.90;;;;;;5014114;28;20170;-74
2021/07/28 04:34:06;;;;;;;7.57;6.87;;;17.80;99.90;;;;;;5032023;28;20206;-73
2021/07/28 04:36:31;;;;;;;8.17;7.37;;;17.90;99.90;;;;;;5028298;28;20216;-73
2021/07/28 04:39:00;;;;;;;7.17;6.57;;;17.90;99.90;;;;;;5005438;28;20205;-73
2021/07/28 04:41:26;;;;;;;7.03;6.53;;;17.90;99.90;;;;;;5025477;28;20185;-74
2021/07/28 04:43:52;;;;;;;7.67;7.00;;;18.00;99.90;;;;;;5034922;28;20192;-74
2021/07/28 04:46:18;;;;;;;8.37;7.50;;;18.00;99.90;;;;;;5022385;28;20194;-74
2021/07/28 04:48:43;;;;;;;12.23;8.73;;;18.00;99.90;;;;;;5035691;28;20201;-71
2021/07/28 04:51:09;;;;;;;9.60;8.40;;;17.90;99.90;;;;;;5049391;28;20572;-73
2021/07/28 04:53:35;;;;;;;18.13;9.53;;;18.00;99.90;;;;;;5039321;28;20224;-73
2021/07/28 04:56:00;;;;;;;9.47;7.90;;;18.00;99.90;;;;;;5036507;28;20606;-73
2021/07/28 04:58:26;;;;;;;9.60;8.17;;;18.00;99.90;;;;;;5032409;28;20181;-73
2021/07/28 05:00:53;;;;;;;9.57;7.20;;;18.00;99.90;;;;;;5036391;28;20359;-73
2021/07/28 05:03:19;;;;;;;8.70;7.80;;;18.00;99.90;;;;;;5036242;28;20178;-73
2021/07/28 05:05:45;;;;;;;7.60;7.00;;;18.00;99.90;;;;;;5018285;28;20224;-73
2021/07/28 05:08:11;;;;;;;9.03;7.43;;;18.00;99.90;;;;;;5035215;28;20214;-74
2021/07/28 05:10:37;;;;;;;11.13;8.07;;;18.00;99.90;;;;;;5036042;28;20182;-72
2021/07/28 05:13:03;;;;;;;8.63;7.83;;;18.00;99.90;;;;;;5035962;28;20231;-74
2021/07/28 05:15:29;;;;;;;10.63;8.20;;;17.80;99.90;;;;;;5035862;28;20284;-74
2021/07/28 05:17:54;;;;;;;8.13;7.53;;;17.60;99.90;;;;;;5034829;28;20274;-74
2021/07/28 05:20:20;;;;;;;8.50;7.70;;;17.70;99.90;;;;;;5035518;28;20190;-73
2021/07/28 05:22:46;;;;;;;7.70;6.90;;;17.70;99.90;;;;;;5035689;28;20178;-73
2021/07/28 05:25:13;;;;;;;7.73;7.03;;;17.80;99.90;;;;;;5020138;28;20314;-74
2021/07/28 05:27:39;;;;;;;8.83;7.93;;;17.90;99.90;;;;;;5033580;28;20185;-74
2021/07/28 05:30:05;;;;;;;7.40;6.80;;;17.90;99.90;;;;;;5034870;28;20731;-73
2021/07/28 05:32:32;;;;;;;7.30;6.70;;;17.90;99.90;;;;;;5068707;22;20237;-75
2021/07/28 05:34:57;;;;;;;8.23;7.43;;;17.70;99.90;;;;;;5043682;28;20578;-75
2021/07/28 05:37:24;;;;;;;8.80;7.90;;;17.60;99.90;;;;;;5025869;28;20196;-75
2021/07/28 05:39:50;;;;;;;8.60;7.73;;;17.50;99.90;;;;;;5054478;28;20188;-77
2021/07/28 05:42:15;;;;;;;8.77;7.80;;;17.40;99.90;;;;;;5035767;28;20572;-76
2021/07/28 05:44:41;;;;;;;8.40;7.60;;;17.40;99.90;;;;;;5054225;28;20202;-76
2021/07/28 05:47:07;;;;;;;8.63;7.73;;;17.40;99.90;;;;;;5037281;28;20674;-76
2021/07/28 05:49:33;;;;;;;8.03;7.23;;;17.40;99.90;;;;;;5037653;28;20204;-76
2021/07/28 05:51:59;;;;;;;8.33;7.13;;;17.50;99.90;;;;;;5055299;28;20204;-76
2021/07/28 05:54:24;;;;;;;8.77;7.60;;;17.60;99.90;;;;;;5036940;28;20260;-76
2021/07/28 05:56:50;;;;;;;8.07;7.47;;;17.60;99.90;;;;;;5037383;28;20205;-76
2021/07/28 05:59:16;;;;;;;8.77;7.87;;;17.60;99.90;;;;;;5055289;28;20177;-77
2021/07/28 06:01:42;;;;;;;7.83;7.13;;;17.60;99.90;;;;;;5037339;28;20205;-76
2021/07/28 06:04:08;;;;;;;7.60;6.80;;;17.70;99.90;;;;;;5055339;28;20170;-76
2021/07/28 06:06:34;;;;;;;7.97;7.27;;;17.70;99.90;;;;;;5018357;28;20188;-76
2021/07/28 06:09:00;;;;;;;8.10;7.30;;;17.80;99.90;;;;;;5032983;28;20188;-76
2021/07/28 06:11:25;;;;;;;8.40;7.60;;;17.70;99.90;;;;;;5029151;28;20198;-77
2021/07/28 06:13:51;;;;;;;7.83;7.13;;;17.60;99.90;;;;;;5054818;28;20169;-77
2021/07/28 06:16:18;;;;;;;8.50;7.17;;;17.50;99.90;;;;;;5054981;28;20631;-76
2021/07/28 06:18:43;;;;;;;9.77;7.07;;;17.50;99.90;;;;;;5036786;28;20183;-76
2021/07/28 06:21:09;;;;;;;9.03;8.07;;;17.40;99.90;;;;;;5054718;28;20208;-76
2021/07/28 06:23:35;;;;;;;8.60;7.90;;;17.40;99.90;;;;;;5054786;28;20175;-76
2021/07/28 06:26:01;;;;;;;8.40;7.17;;;17.50;99.90;;;;;;5054721;28;20631;-76
2021/07/28 06:28:26;;;;;;;7.57;6.87;;;17.60;99.90;;;;;;5037096;28;20269;-76
2021/07/28 06:30:53;;;;;;;7.80;6.87;;;17.70;99.90;;;;;;5054429;28;20177;-76
2021/07/28 06:33:20;;;;;;;8.23;7.33;;;17.80;99.90;;;;;;5031895;28;20192;-76
2021/07/28 06:35:48;;;;;;;7.67;6.97;;;17.70;99.90;;;;;;5050843;28;20180;-76
2021/07/28 06:38:14;;;;;;;9.90;8.50;;;17.60;99.90;;;;;;5054399;28;20641;-76
2021/07/28 06:40:40;;;;;;;7.73;7.03;;;17.60;99.90;;;;;;5050466;28;20181;-76
2021/07/28 06:43:06;;;;;;;8.87;8.00;;;17.60;99.90;;;;;;5034425;28;20661;-76
2021/07/28 06:45:32;;;;;;;8.93;7.97;;;17.60;99.90;;;;;;5029445;28;20259;-76
2021/07/28 06:47:57;;;;;;;10.47;8.07;;;17.50;99.90;;;;;;5054168;28;20208;-76
2021/07/28 06:50:23;;;;;;;11.77;8.87;;;17.50;99.90;;;;;;5036332;28;20196;-76
2021/07/28 06:52:49;;;;;;;10.30;9.23;;;17.40;99.90;;;;;;5054210;28;20665;-76
2021/07/28 06:55:14;;;;;;;10.33;8.83;;;17.40;99.90;;;;;;5054119;28;20196;-76
2021/07/28 06:57:40;;;;;;;8.60;7.90;;;17.30;99.90;;;;;;5054151;28;20176;-76
2021/07/28 07:00:06;;;;;;;8.50;7.80;;;17.40;99.90;;;;;;5053972;28;20180;-76
2021/07/28 07:02:32;;;;;;;9.27;8.20;;;17.40;99.90;;;;;;5036144;28;20193;-76
2021/07/28 07:04:58;;;;;;;9.10;8.30;;;17.50;99.90;;;;;;5053032;28;20230;-76
2021/07/28 07:07:24;;;;;;;8.63;7.83;;;17.60;99.90;;;;;;5036029;28;20711;-76
2021/07/28 07:09:52;;;;;;;8.17;7.37;;;17.70;99.90;;;;;;5036040;28;20184;-76
2021/07/28 07:12:18;;;;;;;7.80;7.00;;;17.60;99.90;;;;;;5053997;28;20242;-76
2021/07/28 07:14:45;;;;;;;7.50;6.90;;;17.70;99.90;;;;;;5035926;28;20181;-76
2021/07/28 07:17:11;;;;;;;9.30;7.80;;;17.70;99.90;;;;;;5035872;28;20174;-76
2021/07/28 07:19:37;;;;;;;8.67;7.07;;;17.70;99.90;;;;;;5035645;28;20200;-76
2021/07/28 07:22:02;;;;;;;11.83;7.33;;;17.60;99.90;;;;;;5053612;28;20201;-76
2021/07/28 07:24:28;;;;;;;8.17;7.03;;;17.70;99.90;;;;;;5035792;28;20172;-76
2021/07/28 07:26:54;;;;;;;6.97;6.43;;;17.60;99.90;;;;;;5053579;28;20629;-76
2021/07/28 07:29:19;;;;;;;7.63;6.87;;;17.70;99.90;;;;;;5053539;28;20600;-76
2021/07/28 07:31:45;;;;;;;7.23;6.27;;;17.70;99.90;;;;;;5053503;28;20216;-76
2021/07/28 07:34:11;;;;;;;7.20;6.60;;;17.70;99.90;;;;;;5044680;28;20267;-76
2021/07/28 07:36:36;;;;;;;7.60;6.53;;;17.60;99.90;;;;;;5035626;28;20184;-76
2021/07/28 07:39:03;;;;;;;6.43;5.87;;;17.60;99.90;;;;;;5035318;28;20197;-76
2021/07/28 07:41:31;;;;;;;6.13;5.53;;;17.70;99.90;;;;;;5053212;28;20732;-76
2021/07/28 07:44:01;;;;;;;6.83;6.17;;;17.80;99.90;;;;;;5035664;28;20534;-76
2021/07/28 07:46:27;;;;;;;6.40;5.90;;;17.80;99.90;;;;;;5053351;28;20172;-76
2021/07/28 07:48:54;;;;;;;6.90;5.90;;;17.80;99.90;;;;;;5053149;28;20177;-76
2021/07/28 07:51:20;;;;;;;7.00;6.27;;;17.80;99.90;;;;;;5053181;28;20206;-76
2021/07/28 07:53:46;;;;;;;6.50;5.90;;;17.80;99.90;;;;;;5053130;28;20199;-76
2021/07/28 07:56:12;;;;;;;6.87;6.17;;;17.80;99.90;;;;;;5053281;28;20179;-76
2021/07/28 07:58:38;;;;;;;6.83;5.70;;;17.80;99.90;;;;;;5052885;28;20703;-76
2021/07/28 08:01:07;;;;;;;5.50;5.00;;;17.80;99.90;;;;;;5052933;28;20203;-76
2021/07/28 08:03:33;;;;;;;9.30;4.50;;;17.70;99.90;;;;;;5053094;28;20179;-76
2021/07/28 08:05:59;;;;;;;5.43;4.90;;;17.60;99.90;;;;;;5035608;28;20173;-76
2021/07/28 08:08:24;;;;;;;5.30;4.80;;;17.50;99.90;;;;;;5052974;28;20543;-76
2021/07/28 08:10:50;;;;;;;5.00;4.60;;;17.50;99.90;;;;;;5030066;28;20668;-77
2021/07/28 08:13:16;;;;;;;5.10;4.20;;;17.50;99.90;;;;;;5053041;28;20169;-76
2021/07/28 08:15:41;;;;;;;7.13;4.63;;;17.40;99.90;;;;;;5052868;28;20175;-76
2021/07/28 08:18:09;;;;;;;5.03;4.50;;;17.30;99.90;;;;;;5052957;28;20589;-76
2021/07/28 08:20:36;;;;;;;5.47;5.07;;;17.50;99.90;;;;;;5034811;28;20188;-76
2021/07/28 08:23:03;;;;;;;5.70;5.17;;;17.60;99.90;;;;;;5035135;28;20605;-76
2021/07/28 08:25:28;;;;;;;5.10;4.70;;;17.60;99.90;;;;;;5053044;28;20180;-76
2021/07/28 08:27:54;;;;;;;5.33;4.93;;;17.70;99.90;;;;;;5053533;28;20189;-75
2021/07/28 08:30:20;;;;;;;6.00;5.00;;;17.60;99.90;;;;;;5052621;28;20183;-75
2021/07/28 08:32:45;;;;;;;6.87;6.17;;;17.60;99.90;;;;;;5052103;28;20278;-75
2021/07/28 08:35:11;;;;;;;5.33;4.83;;;17.60;99.90;;;;;;5044523;28;20238;-75
2021/07/28 08:37:39;;;;;;;6.20;4.83;;;17.60;99.90;;;;;;5034600;28;20172;-75
2021/07/28 08:40:17;;;;;;;5.80;5.40;;;17.60;99.90;;;;;;5052724;28;20227;-75
2021/07/28 08:42:49;;;;;;;6.17;5.67;;;17.60;99.90;;;;;;5034794;28;20246;-75
2021/07/28 08:45:16;;;;;;;6.20;5.70;;;17.60;99.90;;;;;;5052650;28;20181;-75
2021/07/28 08:47:45;;;;;;;6.20;5.70;;;17.60;99.90;;;;;;5034749;28;20177;-75
2021/07/28 08:50:12;;;;;;;7.63;6.83;;;17.60;99.90;;;;;;5044985;28;20165;-75
2021/07/28 08:52:39;;;;;;;7.37;6.67;;;17.60;99.90;;;;;;5032755;28;20665;-75
2021/07/28 08:55:06;;;;;;;7.67;6.90;;;17.60;99.90;;;;;;5050127;28;20181;-75
2021/07/28 08:57:33;;;;;;;7.47;6.87;;;17.60;99.90;;;;;;5052852;28;20649;-74
2021/07/28 08:59:59;;;;;;;7.87;7.07;;;17.70;99.90;;;;;;5052420;28;20197;-75
2021/07/28 09:02:26;;;;;;;7.23;6.63;;;17.70;99.90;;;;;;5052723;28;20311;-76
2021/07/28 09:04:52;;;;;;;7.13;6.63;;;17.70;99.90;;;;;;5034843;28;20180;-76
2021/07/28 09:07:21;;;;;;;6.70;6.20;;;17.60;99.90;;;;;;5034695;28;20172;-76
2021/07/28 09:09:57;;;;;;;7.10;6.40;;;17.40;99.90;;;;;;5052392;28;20263;-76
2021/07/28 09:12:33;;;;;;;7.00;6.40;;;17.20;99.90;;;;;;5034438;28;20206;-76
2021/07/28 09:15:05;;;;;;;7.37;6.77;;;17.30;99.90;;;;;;5052325;28;20214;-76
2021/07/28 09:17:34;;;;;;;11.07;7.80;;;17.30;99.90;;;;;;5052228;28;20698;-75
2021/07/28 09:20:01;;;;;;;8.43;7.73;;;17.20;99.90;;;;;;5034314;28;20268;-76
2021/07/28 09:22:39;;;;;;;8.37;7.67;;;17.10;99.90;;;;;;5052051;28;20695;-76
2021/07/28 09:25:32;;;;;;;7.73;7.03;;;17.10;99.90;;;;;;5052519;28;20668;-75
2021/07/28 09:27:58;;;;;;;7.90;7.13;;;17.10;99.90;;;;;;5053118;28;20256;-76
2021/07/28 09:30:23;;;;;;;9.13;7.37;;;17.20;99.90;;;;;;5055675;28;20251;-76
2021/07/28 09:33:01;;;;;;;8.97;8.07;;;17.30;99.90;;;;;;5054882;28;20252;-76
2021/07/28 09:35:54;;;;;;;8.67;7.87;;;17.30;99.90;;;;;;5049444;28;20706;-76
2021/07/28 09:38:35;;;;;;;7.20;6.63;;;17.40;99.90;;;;;;5055575;28;20177;-76
2021/07/28 09:41:37;;;;;;;8.13;7.43;;;17.40;99.90;;;;;;5055773;28;20170;-76
2021/07/28 09:44:03;;;;;;;10.40;8.30;;;17.50;99.90;;;;;;5004273;28;20186;-76
2021/07/28 09:46:31;;;;;;;8.67;7.93;;;17.60;99.90;;;;;;5037653;28;20652;-75
2021/07/28 09:48:58;;;;;;;7.97;7.13;;;17.50;99.90;;;;;;5055474;28;20649;-76
2021/07/28 09:51:34;;;;;;;7.37;6.77;;;17.60;99.90;;;;;;5055281;28;20209;-76
2021/07/28 09:54:05;;;;;;;7.50;6.83;;;17.60;99.90;;;;;;5055557;28;20179;-76
2021/07/28 09:56:50;;;;;;;8.10;7.33;;;17.60;99.90;;;;;;5055520;28;20271;-76
2021/07/28 09:59:17;;;;;;;7.97;7.20;;;17.70;99.90;;;;;;5055322;28;20203;-76
2021/07/28 10:01:44;;;;;;;9.03;8.20;;;17.70;99.90;;;;;;5050090;28;20198;-76
2021/07/28 10:04:11;;;;;;;8.50;7.80;;;17.70;99.90;;;;;;5035576;28;20174;-76
2021/07/28 10:06:43;;;;;;;8.07;7.37;;;17.80;99.90;;;;;;5031772;28;20625;-76
2021/07/28 10:09:33;;;;;;;8.10;7.50;;;17.80;99.90;;;;;;5037250;28;20181;-76
2021/07/28 10:11:59;;;;;;;8.53;7.87;;;17.80;99.90;;;;;;5037751;28;20204;-76
2021/07/28 10:14:27;;;;;;;9.20;8.30;;;17.90;99.90;;;;;;5055191;28;20542;-76
2021/07/28 10:16:53;;;;;;;9.00;8.20;;;17.90;99.90;;;;;;5054938;28;20731;-76
2021/07/28 10:19:19;;;;;;;11.10;8.03;;;17.90;99.90;;;;;;5055082;28;20192;-76
2021/07/28 10:21:46;;;;;;;8.50;7.70;;;18.00;99.90;;;;;;5041736;28;20670;-76
2021/07/28 10:24:12;;;;;;;9.07;8.17;;;18.00;99.90;;;;;;5041028;28;20678;-76
2021/07/28 10:26:41;;;;;;;7.10;6.50;;;18.00;99.90;;;;;;5056189;28;20255;-76
2021/07/28 10:29:09;;;;;;;6.50;5.90;;;18.10;99.90;;;;;;5054576;28;20181;-76
2021/07/28 10:31:43;;;;;;;8.30;7.50;;;18.10;99.90;;;;;;5054480;28;20220;-76
2021/07/28 10:34:33;;;;;;;8.23;7.43;;;18.10;99.90;;;;;;5027947;28;20173;-76
2021/07/28 10:37:07;;;;;;;7.90;7.20;;;18.20;99.90;;;;;;5036674;28;20177;-76
2021/07/28 10:39:47;;;;;;;7.53;6.83;;;18.20;99.90;;;;;;5054193;28;20565;-76
2021/07/28 10:42:19;;;;;;;7.83;7.13;;;18.10;99.90;;;;;;5054688;28;20201;-76
2021/07/28 10:45:12;;;;;;;7.67;6.90;;;18.10;99.90;;;;;;5054450;28;20173;-76
2021/07/28 10:47:47;;;;;;;6.43;5.93;;;18.20;99.90;;;;;;5054376;28;20169;-76
2021/07/28 10:50:22;;;;;;;7.23;6.63;;;18.30;99.90;;;;;;5046924;28;20182;-76
2021/07/28 10:52:49;;;;;;;7.10;6.50;;;18.40;99.90;;;;;;5054222;28;20200;-76
2021/07/28 10:55:18;;;;;;;7.13;6.57;;;18.40;99.90;;;;;;5036216;28;20175;-76
2021/07/28 10:57:53;;;;;;;6.50;5.90;;;18.50;99.90;;;;;;5054687;28;20192;-76
2021/07/28 11:00:42;;;;;;;5.00;4.60;;;18.60;99.90;;;;;;5054072;28;20200;-76
2021/07/28 11:03:08;;;;;;;4.00;3.70;;;18.70;99.90;;;;;;5054261;28;20192;-76
2021/07/28 11:05:48;;;;;;;3.90;3.60;;;18.60;99.90;;;;;;5034230;28;20185;-76
2021/07/28 11:08:19;;;;;;;4.83;4.17;;;18.60;99.90;;;;;;5029959;28;20319;-76
2021/07/28 11:10:45;;;;;;;4.03;3.73;;;18.70;99.90;;;;;;5053832;28;20191;-76
2021/07/28 11:13:13;;;;;;;3.90;3.60;;;18.70;99.90;;;;;;5053834;28;20185;-76
2021/07/28 11:15:40;;;;;;;4.43;4.10;;;18.80;99.90;;;;;;5036010;28;20640;-75
2021/07/28 11:18:07;;;;;;;5.87;5.37;;;18.80;99.90;;;;;;5053830;28;20222;-75
2021/07/28 11:20:39;;;;;;;7.13;5.30;;;18.90;99.90;;;;;;5053674;28;20196;-76
2021/07/28 11:23:29;;;;;;;5.47;4.90;;;19.00;99.90;;;;;;5053742;28;20198;-76
2021/07/28 11:25:57;;;;;;;5.83;4.93;;;19.10;99.90;;;;;;5053953;28;20174;-75
2021/07/28 11:28:24;;;;;;;5.60;5.10;;;19.10;99.90;;;;;;5035899;28;20184;-75
2021/07/28 11:31:01;;;;;;;4.93;4.53;;;19.20;99.90;;;;;;5053204;28;20185;-75
2021/07/28 11:33:31;;;;;;;4.83;4.43;;;19.20;99.90;;;;;;5081012;22;20311;-77
2021/07/28 11:35:59;;;;;;;4.63;4.23;;;19.30;99.90;;;;;;5055280;28;20177;-77
2021/07/28 11:38:33;;;;;;;4.87;3.80;;;19.40;99.90;;;;;;5054871;28;20268;-77
2021/07/28 11:41:01;;;;;;;3.73;3.43;;;19.40;99.90;;;;;;5036530;28;20192;-77
2021/07/28 11:43:41;;;;;;;5.67;4.00;;;19.50;99.90;;;;;;5038529;28;20194;-78
2021/07/28 11:46:18;;;;;;;4.40;4.00;;;19.70;99.90;;;;;;5034023;28;20677;-76
2021/07/28 11:48:45;;;;;;;4.60;4.20;;;20.00;99.90;;;;;;5033331;28;20177;-76
2021/07/28 11:51:24;;;;;;;4.67;4.03;;;20.10;99.90;;;;;;5019345;28;20198;-75
2021/07/28 11:53:50;;;;;;;4.93;4.10;;;19.90;99.90;;;;;;5020741;28;20667;-75
2021/07/28 11:56:16;;;;;;;4.70;4.33;;;19.80;99.90;;;;;;5035597;28;20197;-75
2021/07/28 11:58:48;;;;;;;4.67;4.27;;;19.70;99.90;;;;;;5032875;28;20181;-75
2021/07/28 12:01:27;;;;;;;3.70;3.47;;;19.60;99.90;;;;;;5033002;28;20171;-76
2021/07/28 12:04:03;;;;;;;3.70;3.40;;;19.70;99.90;;;;;;5015078;28;20226;-76
2021/07/28 12:06:40;;;;;;;3.60;3.30;;;19.70;99.90;;;;;;5015237;28;20211;-76
2021/07/28 12:09:08;;;;;;;4.10;3.73;;;19.60;99.90;;;;;;5020018;28;20178;-76
2021/07/28 12:11:52;;;;;;;4.47;4.00;;;19.60;99.90;;;;;;5033115;28;20533;-76
2021/07/28 12:14:43;;;;;;;4.97;4.57;;;19.60;99.90;;;;;;5033059;28;20253;-76
2021/07/28 12:17:17;;;;;;;4.63;4.23;;;19.70;99.90;;;;;;5032874;28;20631;-76
2021/07/28 12:19:54;;;;;;;4.20;3.57;;;19.80;99.90;;;;;;5032647;28;20194;-76
2021/07/28 12:22:49;;;;;;;4.20;3.87;;;20.00;99.90;;;;;;5018768;28;20194;-75
2021/07/28 12:25:24;;;;;;;4.57;4.17;;;20.00;99.90;;;;;;5032254;28;20218;-76
2021/07/28 12:27:56;;;;;;;4.10;3.80;;;20.00;99.90;;;;;;5015032;28;20177;-75
2021/07/28 12:30:24;;;;;;;4.27;3.83;;;20.20;99.90;;;;;;5019153;28;20183;-76
2021/07/28 12:33:00;;;;;;;4.50;4.10;;;20.20;99.90;;;;;;5008436;28;20213;-75
2021/07/28 12:35:27;;;;;;;5.10;4.70;;;20.10;99.90;;;;;;5031288;28;20673;-76
2021/07/28 12:38:21;;;;;;;6.20;5.60;;;20.30;99.90;;;;;;5031794;28;20205;-76
2021/07/28 12:40:52;;;;;;;6.13;4.77;;;20.40;99.90;;;;;;5031208;28;20213;-76
2021/07/28 12:43:18;;;;;;;7.67;5.80;;;20.50;99.90;;;;;;5032641;28;20187;-76
2021/07/28 12:45:45;;;;;;;4.17;3.77;;;20.70;99.90;;;;;;5031025;28;20182;-75
2021/07/28 12:48:11;;;;;;;3.63;3.33;;;20.80;99.90;;;;;;5032187;28;20202;-74
2021/07/28 12:50:41;;;;;;;3.50;3.20;;;20.80;99.90;;;;;;5030171;28;20178;-75
2021/07/28 12:53:06;;;;;;;8.00;5.37;;;20.80;99.90;;;;;;5031837;28;20710;-75